KMKN

Comanche County-City Airport

Comanche, Texas, USA
METAR KMKN 220955Z AUTO 00000KT 10SM CLR 19/19 A3000 RMK AO2 T01850185
Observed Flight Rules
May-22 @ 09:55 UTC (11 minutes ago) Visual Flight Rules
Visibility Clouds
10 miles
  • Clear skies
Temperatures Readings
Current 19°C / 66°F
Dewpoint 19°C / 66°F
Humidity 100%
Altimeter 30" Hg
Pressure 1016 hPa
Elevation 423
METAR KMKN 220955Z AUTO 00000KT 10SM CLR 19/19 A3000 RMK AO2 T01850185
Observed Flight Rules
May-22 @ 09:55 UTC
(11 minutes ago)
VFR
Clouds
  • Clear skies
Temperature Dewpoint
19°C / 66°F 19°C / 66°F
Humidity Altimeter Pressure
100% 30" Hg 1016 hPa